Pagrindinis puslapis
METAR-TAF:

METAR-TAF

Oro uostai :

Arvidsjaur, Švedija

platuma: 65-35-25N, ilguma: 019-16-55E, Aukštis: 379 m

Dabartinis oras

Ataskaita buvo paskelbta 22 minutes, ne 06:50 UTC
Vėjas 8 kt iš Pietų
Temperatūra 7°C
Drėgmė 49%
Slėgis 1017 hPa
Matomumas 10 km arba daugiau

METAR: ESNX 200650Z AUTO 19008KT 9999 OVC049/// 07/M03 Q1017

Laikas: 09:12 (07:12 UTC)

Prognozė

Ataskaita buvo paskelbta 1 valandą ir 42 minutes, ne 05:30 UTC
Prognozė galioja nuo 20 metu 06 UTC su 20 metu 15 UTC
Vėjas 8 kt iš Pietų/Pietryčių
Matomumas 10 km arba daugiau
Su prošvaistėmis ne aukštis 4500 ft
Laikinai
nuo 20 metu 07 UTC su 20 metu 11 UTC
Su prošvaistėmis ne aukštis 4000 ft, Liūtiniai kamuoliniai debesys.

TAF: ESNX 200530Z 2006/2015 16008KT 9999 BKN045 TEMPO 2007/2011 BKN040CB

Orai ataskaitas ir orų prognozės (METAR, TAF).

turimą stotys yra geltonos ir raudonos taškus žemėlapyje.

Perkelti pele per norėdami pamatyti stoties vardą.

Tada spustelėkite, norėdami matyti oro stebėjimo ir prognozės.

Norėdami pakeisti žemėlapį: spustelėkite ant žalios mygtukų su juodo kryžiaus žemyn,; žalią mygtuką su brūkšneliu, jei norite nutolinti; arba žalių rodyklių gretimoms žemėlapius.


METAR-TAF: